sensor_id;sensor_type;location;lat;lon;timestamp;P1;durP1;ratioP1;P2;durP2;ratioP2
42600;SDS011;28229;48.856;9.088;2023-05-29T00:01:35;7.37;;;6.07;;
42600;SDS011;28229;48.856;9.088;2023-05-29T00:04:01;9.57;;;6.13;;
42600;SDS011;28229;48.856;9.088;2023-05-29T00:06:27;9.30;;;5.63;;
42600;SDS011;28229;48.856;9.088;2023-05-29T00:08:55;12.33;;;6.20;;
42600;SDS011;28229;48.856;9.088;2023-05-29T00:11:21;7.53;;;5.77;;
42600;SDS011;28229;48.856;9.088;2023-05-29T00:13:48;6.83;;;5.37;;
42600;SDS011;28229;48.856;9.088;2023-05-29T00:16:14;7.57;;;5.53;;
42600;SDS011;28229;48.856;9.088;2023-05-29T00:18:41;7.93;;;5.93;;
42600;SDS011;28229;48.856;9.088;2023-05-29T00:21:14;8.27;;;6.10;;
42600;SDS011;28229;48.856;9.088;2023-05-29T00:23:40;6.47;;;5.17;;
42600;SDS011;28229;48.856;9.088;2023-05-29T00:26:06;7.93;;;5.80;;
42600;SDS011;28229;48.856;9.088;2023-05-29T00:28:33;8.67;;;5.53;;
42600;SDS011;28229;48.856;9.088;2023-05-29T00:31:00;8.87;;;5.90;;
42600;SDS011;28229;48.856;9.088;2023-05-29T00:33:27;7.93;;;5.63;;
42600;SDS011;28229;48.856;9.088;2023-05-29T00:35:54;7.77;;;5.40;;
42600;SDS011;28229;48.856;9.088;2023-05-29T00:38:20;7.03;;;5.23;;
42600;SDS011;28229;48.856;9.088;2023-05-29T00:40:46;7.77;;;5.43;;
42600;SDS011;28229;48.856;9.088;2023-05-29T00:43:12;6.50;;;5.37;;
42600;SDS011;28229;48.856;9.088;2023-05-29T00:45:44;9.50;;;5.50;;
42600;SDS011;28229;48.856;9.088;2023-05-29T00:48:10;8.07;;;5.97;;
42600;SDS011;28229;48.856;9.088;2023-05-29T00:50:37;6.90;;;5.27;;
42600;SDS011;28229;48.856;9.088;2023-05-29T00:53:03;7.37;;;5.63;;
42600;SDS011;28229;48.856;9.088;2023-05-29T00:55:30;8.13;;;5.83;;
42600;SDS011;28229;48.856;9.088;2023-05-29T00:57:57;8.70;;;5.77;;
42600;SDS011;28229;48.856;9.088;2023-05-29T01:00:23;7.63;;;5.17;;
42600;SDS011;28229;48.856;9.088;2023-05-29T01:02:50;8.07;;;6.03;;
42600;SDS011;28229;48.856;9.088;2023-05-29T01:05:18;7.93;;;5.57;;
42600;SDS011;28229;48.856;9.088;2023-05-29T01:07:45;7.20;;;5.80;;
42600;SDS011;28229;48.856;9.088;2023-05-29T01:10:12;8.10;;;5.77;;
42600;SDS011;28229;48.856;9.088;2023-05-29T01:28:15;6.77;;;5.27;;
42600;SDS011;28229;48.856;9.088;2023-05-29T01:30:45;9.83;;;5.83;;
42600;SDS011;28229;48.856;9.088;2023-05-29T01:33:12;8.77;;;5.53;;
42600;SDS011;28229;48.856;9.088;2023-05-29T01:35:39;8.37;;;5.57;;
42600;SDS011;28229;48.856;9.088;2023-05-29T01:38:05;7.03;;;5.47;;
42600;SDS011;28229;48.856;9.088;2023-05-29T01:40:31;7.50;;;5.27;;
42600;SDS011;28229;48.856;9.088;2023-05-29T01:42:58;8.87;;;5.77;;
42600;SDS011;28229;48.856;9.088;2023-05-29T01:45:24;6.90;;;5.50;;
42600;SDS011;28229;48.856;9.088;2023-05-29T01:47:53;7.80;;;5.80;;
42600;SDS011;28229;48.856;9.088;2023-05-29T01:50:19;6.20;;;5.10;;
42600;SDS011;28229;48.856;9.088;2023-05-29T01:52:47;7.23;;;5.50;;
42600;SDS011;28229;48.856;9.088;2023-05-29T01:55:14;6.20;;;5.07;;
42600;SDS011;28229;48.856;9.088;2023-05-29T01:57:40;7.80;;;5.33;;
42600;SDS011;28229;48.856;9.088;2023-05-29T02:00:07;7.73;;;5.60;;
42600;SDS011;28229;48.856;9.088;2023-05-29T02:02:42;5.93;;;4.70;;
42600;SDS011;28229;48.856;9.088;2023-05-29T02:05:09;7.10;;;5.33;;
42600;SDS011;28229;48.856;9.088;2023-05-29T02:07:35;7.20;;;5.40;;
42600;SDS011;28229;48.856;9.088;2023-05-29T02:10:03;7.50;;;5.17;;
42600;SDS011;28229;48.856;9.088;2023-05-29T02:12:30;6.93;;;5.37;;
42600;SDS011;28229;48.856;9.088;2023-05-29T02:14:56;7.20;;;5.30;;
42600;SDS011;28229;48.856;9.088;2023-05-29T02:17:23;8.07;;;5.17;;
42600;SDS011;28229;48.856;9.088;2023-05-29T02:19:49;7.77;;;5.73;;
42600;SDS011;28229;48.856;9.088;2023-05-29T02:22:17;7.43;;;5.60;;
42600;SDS011;28229;48.856;9.088;2023-05-29T02:24:43;7.10;;;5.20;;
42600;SDS011;28229;48.856;9.088;2023-05-29T02:27:21;6.83;;;5.37;;
42600;SDS011;28229;48.856;9.088;2023-05-29T02:29:47;9.73;;;5.33;;
42600;SDS011;28229;48.856;9.088;2023-05-29T02:32:13;7.03;;;5.33;;
42600;SDS011;28229;48.856;9.088;2023-05-29T02:34:40;6.80;;;5.00;;
42600;SDS011;28229;48.856;9.088;2023-05-29T02:37:06;7.67;;;5.57;;
42600;SDS011;28229;48.856;9.088;2023-05-29T02:39:32;7.20;;;5.47;;
42600;SDS011;28229;48.856;9.088;2023-05-29T02:41:58;6.87;;;5.10;;
42600;SDS011;28229;48.856;9.088;2023-05-29T02:44:24;6.23;;;5.20;;
42600;SDS011;28229;48.856;9.088;2023-05-29T02:46:51;6.43;;;5.27;;
42600;SDS011;28229;48.856;9.088;2023-05-29T02:49:17;7.57;;;5.37;;
42600;SDS011;28229;48.856;9.088;2023-05-29T02:51:43;6.33;;;5.17;;
42600;SDS011;28229;48.856;9.088;2023-05-29T02:54:09;7.00;;;5.77;;
42600;SDS011;28229;48.856;9.088;2023-05-29T02:56:38;5.93;;;5.03;;
42600;SDS011;28229;48.856;9.088;2023-05-29T02:59:04;7.50;;;5.67;;
42600;SDS011;28229;48.856;9.088;2023-05-29T03:01:30;7.83;;;5.30;;
42600;SDS011;28229;48.856;9.088;2023-05-29T03:03:59;7.23;;;5.97;;
42600;SDS011;28229;48.856;9.088;2023-05-29T03:06:25;7.17;;;5.93;;
42600;SDS011;28229;48.856;9.088;2023-05-29T03:08:51;6.17;;;5.10;;
42600;SDS011;28229;48.856;9.088;2023-05-29T03:11:18;6.73;;;5.30;;
42600;SDS011;28229;48.856;9.088;2023-05-29T03:13:44;8.30;;;5.70;;
42600;SDS011;28229;48.856;9.088;2023-05-29T03:16:12;7.73;;;5.40;;
42600;SDS011;28229;48.856;9.088;2023-05-29T03:18:42;7.80;;;5.80;;
42600;SDS011;28229;48.856;9.088;2023-05-29T03:21:09;8.40;;;6.17;;
42600;SDS011;28229;48.856;9.088;2023-05-29T03:23:36;7.03;;;5.50;;
42600;SDS011;28229;48.856;9.088;2023-05-29T03:26:02;8.57;;;5.53;;
42600;SDS011;28229;48.856;9.088;2023-05-29T03:28:30;7.90;;;5.90;;
42600;SDS011;28229;48.856;9.088;2023-05-29T03:30:58;6.87;;;5.23;;
42600;SDS011;28229;48.856;9.088;2023-05-29T03:33:36;16.67;;;6.93;;
42600;SDS011;28229;48.856;9.088;2023-05-29T03:36:25;7.03;;;5.63;;
42600;SDS011;28229;48.856;9.088;2023-05-29T03:38:52;7.67;;;5.57;;
42600;SDS011;28229;48.856;9.088;2023-05-29T03:41:19;8.03;;;6.03;;
42600;SDS011;28229;48.856;9.088;2023-05-29T03:43:46;8.03;;;5.80;;
42600;SDS011;28229;48.856;9.088;2023-05-29T03:46:13;7.27;;;5.53;;
42600;SDS011;28229;48.856;9.088;2023-05-29T03:48:39;8.07;;;5.63;;
42600;SDS011;28229;48.856;9.088;2023-05-29T03:51:05;9.03;;;5.70;;
42600;SDS011;28229;48.856;9.088;2023-05-29T03:53:35;8.57;;;5.87;;
42600;SDS011;28229;48.856;9.088;2023-05-29T03:56:01;9.00;;;5.80;;
42600;SDS011;28229;48.856;9.088;2023-05-29T03:58:28;8.70;;;5.73;;
42600;SDS011;28229;48.856;9.088;2023-05-29T04:00:56;6.33;;;5.20;;
42600;SDS011;28229;48.856;9.088;2023-05-29T04:03:22;6.53;;;5.23;;
42600;SDS011;28229;48.856;9.088;2023-05-29T04:05:49;9.20;;;5.97;;
42600;SDS011;28229;48.856;9.088;2023-05-29T04:08:15;7.80;;;5.60;;
42600;SDS011;28229;48.856;9.088;2023-05-29T04:10:41;7.83;;;5.30;;
42600;SDS011;28229;48.856;9.088;2023-05-29T04:13:08;8.77;;;5.80;;
42600;SDS011;28229;48.856;9.088;2023-05-29T04:15:34;8.20;;;5.00;;
42600;SDS011;28229;48.856;9.088;2023-05-29T04:18:00;9.30;;;5.20;;
42600;SDS011;28229;48.856;9.088;2023-05-29T04:20:26;6.50;;;5.07;;
42600;SDS011;28229;48.856;9.088;2023-05-29T04:22:53;8.00;;;5.63;;
42600;SDS011;28229;48.856;9.088;2023-05-29T04:25:19;9.20;;;5.53;;
42600;SDS011;28229;48.856;9.088;2023-05-29T04:27:46;7.57;;;5.57;;
42600;SDS011;28229;48.856;9.088;2023-05-29T04:30:17;6.33;;;4.73;;
42600;SDS011;28229;48.856;9.088;2023-05-29T04:32:46;6.70;;;4.93;;
42600;SDS011;28229;48.856;9.088;2023-05-29T04:35:13;8.30;;;6.00;;
42600;SDS011;28229;48.856;9.088;2023-05-29T04:37:46;7.60;;;5.47;;
42600;SDS011;28229;48.856;9.088;2023-05-29T04:40:13;7.07;;;5.30;;
42600;SDS011;28229;48.856;9.088;2023-05-29T04:42:45;7.67;;;5.60;;
42600;SDS011;28229;48.856;9.088;2023-05-29T04:45:11;8.07;;;5.50;;
42600;SDS011;28229;48.856;9.088;2023-05-29T04:47:38;8.87;;;5.90;;
42600;SDS011;28229;48.856;9.088;2023-05-29T04:50:12;6.63;;;5.53;;
42600;SDS011;28229;48.856;9.088;2023-05-29T04:52:40;8.10;;;5.63;;
42600;SDS011;28229;48.856;9.088;2023-05-29T04:55:08;6.87;;;5.43;;
42600;SDS011;28229;48.856;9.088;2023-05-29T04:57:36;6.50;;;4.97;;
42600;SDS011;28229;48.856;9.088;2023-05-29T05:00:03;6.83;;;5.33;;
42600;SDS011;28229;48.856;9.088;2023-05-29T05:02:36;6.40;;;4.83;;
42600;SDS011;28229;48.856;9.088;2023-05-29T05:05:03;8.73;;;5.50;;
42600;SDS011;28229;48.856;9.088;2023-05-29T05:07:30;9.40;;;5.63;;
42600;SDS011;28229;48.856;9.088;2023-05-29T05:09:56;6.13;;;4.83;;
42600;SDS011;28229;48.856;9.088;2023-05-29T05:12:26;7.20;;;5.30;;
42600;SDS011;28229;48.856;9.088;2023-05-29T05:15:00;6.80;;;5.37;;
42600;SDS011;28229;48.856;9.088;2023-05-29T05:17:27;8.03;;;5.07;;
42600;SDS011;28229;48.856;9.088;2023-05-29T05:19:54;7.03;;;5.13;;
42600;SDS011;28229;48.856;9.088;2023-05-29T05:22:22;8.37;;;5.33;;
42600;SDS011;28229;48.856;9.088;2023-05-29T05:24:49;6.90;;;5.20;;
42600;SDS011;28229;48.856;9.088;2023-05-29T05:27:18;7.50;;;5.00;;
42600;SDS011;28229;48.856;9.088;2023-05-29T05:29:44;6.63;;;4.70;;
42600;SDS011;28229;48.856;9.088;2023-05-29T05:32:10;6.70;;;4.50;;
42600;SDS011;28229;48.856;9.088;2023-05-29T05:34:37;6.77;;;4.90;;
42600;SDS011;28229;48.856;9.088;2023-05-29T05:37:03;6.73;;;5.00;;
42600;SDS011;28229;48.856;9.088;2023-05-29T05:39:32;6.53;;;4.60;;
42600;SDS011;28229;48.856;9.088;2023-05-29T05:41:58;7.23;;;4.53;;
42600;SDS011;28229;48.856;9.088;2023-05-29T05:44:41;6.47;;;5.00;;
42600;SDS011;28229;48.856;9.088;2023-05-29T05:47:11;7.17;;;4.93;;
42600;SDS011;28229;48.856;9.088;2023-05-29T05:49:38;6.50;;;4.33;;
42600;SDS011;28229;48.856;9.088;2023-05-29T05:52:04;5.40;;;4.17;;
42600;SDS011;28229;48.856;9.088;2023-05-29T05:54:31;5.90;;;4.50;;
42600;SDS011;28229;48.856;9.088;2023-05-29T05:56:58;5.33;;;4.63;;
42600;SDS011;28229;48.856;9.088;2023-05-29T05:59:25;9.47;;;4.97;;
42600;SDS011;28229;48.856;9.088;2023-05-29T06:01:52;6.43;;;4.60;;
42600;SDS011;28229;48.856;9.088;2023-05-29T06:04:19;9.40;;;4.93;;
42600;SDS011;28229;48.856;9.088;2023-05-29T06:06:45;8.17;;;4.70;;
42600;SDS011;28229;48.856;9.088;2023-05-29T06:09:12;7.60;;;4.33;;
42600;SDS011;28229;48.856;9.088;2023-05-29T06:11:38;6.87;;;4.60;;
42600;SDS011;28229;48.856;9.088;2023-05-29T06:14:04;7.00;;;4.27;;
42600;SDS011;28229;48.856;9.088;2023-05-29T06:16:31;6.00;;;4.17;;
42600;SDS011;28229;48.856;9.088;2023-05-29T06:18:57;6.60;;;4.40;;
42600;SDS011;28229;48.856;9.088;2023-05-29T06:21:25;6.33;;;4.40;;
42600;SDS011;28229;48.856;9.088;2023-05-29T06:23:53;5.50;;;4.27;;
42600;SDS011;28229;48.856;9.088;2023-05-29T06:26:21;6.53;;;4.50;;
42600;SDS011;28229;48.856;9.088;2023-05-29T06:28:49;6.27;;;4.20;;
42600;SDS011;28229;48.856;9.088;2023-05-29T06:31:15;6.13;;;4.10;;
42600;SDS011;28229;48.856;9.088;2023-05-29T06:33:43;5.73;;;3.70;;
42600;SDS011;28229;48.856;9.088;2023-05-29T06:36:10;7.57;;;4.17;;
42600;SDS011;28229;48.856;9.088;2023-05-29T06:38:36;6.37;;;3.60;;
42600;SDS011;28229;48.856;9.088;2023-05-29T06:41:03;5.20;;;3.60;;
42600;SDS011;28229;48.856;9.088;2023-05-29T06:43:29;5.73;;;4.03;;
42600;SDS011;28229;48.856;9.088;2023-05-29T06:45:57;5.60;;;3.73;;
42600;SDS011;28229;48.856;9.088;2023-05-29T06:48:23;5.53;;;3.63;;
42600;SDS011;28229;48.856;9.088;2023-05-29T06:50:50;7.17;;;3.87;;
42600;SDS011;28229;48.856;9.088;2023-05-29T06:53:36;4.37;;;3.90;;
42600;SDS011;28229;48.856;9.088;2023-05-29T06:56:06;5.33;;;3.70;;
42600;SDS011;28229;48.856;9.088;2023-05-29T06:58:33;7.20;;;4.47;;
42600;SDS011;28229;48.856;9.088;2023-05-29T07:01:00;6.03;;;3.73;;
42600;SDS011;28229;48.856;9.088;2023-05-29T07:03:33;5.90;;;3.60;;
42600;SDS011;28229;48.856;9.088;2023-05-29T07:06:01;6.10;;;4.40;;
42600;SDS011;28229;48.856;9.088;2023-05-29T07:08:28;4.93;;;4.07;;
42600;SDS011;28229;48.856;9.088;2023-05-29T07:10:54;6.70;;;4.07;;
42600;SDS011;28229;48.856;9.088;2023-05-29T07:13:21;4.97;;;3.87;;
42600;SDS011;28229;48.856;9.088;2023-05-29T07:15:48;4.27;;;3.87;;
42600;SDS011;28229;48.856;9.088;2023-05-29T07:18:16;5.30;;;3.43;;
42600;SDS011;28229;48.856;9.088;2023-05-29T07:20:43;4.70;;;3.60;;
42600;SDS011;28229;48.856;9.088;2023-05-29T07:23:12;5.30;;;3.73;;
42600;SDS011;28229;48.856;9.088;2023-05-29T07:25:39;7.20;;;4.10;;
42600;SDS011;28229;48.856;9.088;2023-05-29T07:28:06;5.07;;;3.50;;
42600;SDS011;28229;48.856;9.088;2023-05-29T07:30:32;6.03;;;3.63;;
42600;SDS011;28229;48.856;9.088;2023-05-29T07:32:58;5.87;;;3.97;;
42600;SDS011;28229;48.856;9.088;2023-05-29T07:35:24;4.73;;;3.77;;
42600;SDS011;28229;48.856;9.088;2023-05-29T07:37:50;4.90;;;3.57;;
42600;SDS011;28229;48.856;9.088;2023-05-29T07:40:18;5.03;;;3.50;;
42600;SDS011;28229;48.856;9.088;2023-05-29T07:43:03;4.93;;;3.87;;
42600;SDS011;28229;48.856;9.088;2023-05-29T07:45:44;6.23;;;3.83;;
42600;SDS011;28229;48.856;9.088;2023-05-29T07:48:10;6.87;;;4.10;;
42600;SDS011;28229;48.856;9.088;2023-05-29T07:50:36;6.70;;;3.90;;
42600;SDS011;28229;48.856;9.088;2023-05-29T07:53:03;6.03;;;4.10;;
42600;SDS011;28229;48.856;9.088;2023-05-29T07:55:30;6.27;;;3.90;;
42600;SDS011;28229;48.856;9.088;2023-05-29T07:57:56;5.07;;;4.00;;
42600;SDS011;28229;48.856;9.088;2023-05-29T08:00:23;4.63;;;3.83;;
42600;SDS011;28229;48.856;9.088;2023-05-29T08:02:51;5.70;;;4.10;;
42600;SDS011;28229;48.856;9.088;2023-05-29T08:05:30;5.60;;;3.97;;
42600;SDS011;28229;48.856;9.088;2023-05-29T08:08:04;5.23;;;3.80;;
42600;SDS011;28229;48.856;9.088;2023-05-29T08:10:31;6.23;;;4.10;;
42600;SDS011;28229;48.856;9.088;2023-05-29T08:12:58;4.80;;;3.93;;
42600;SDS011;28229;48.856;9.088;2023-05-29T08:15:24;4.40;;;3.70;;
42600;SDS011;28229;48.856;9.088;2023-05-29T08:17:52;5.53;;;4.20;;
42600;SDS011;28229;48.856;9.088;2023-05-29T08:20:18;4.70;;;3.67;;
42600;SDS011;28229;48.856;9.088;2023-05-29T08:22:44;5.30;;;3.90;;
42600;SDS011;28229;48.856;9.088;2023-05-29T08:25:11;4.80;;;3.80;;
42600;SDS011;28229;48.856;9.088;2023-05-29T08:27:38;5.43;;;3.77;;
42600;SDS011;28229;48.856;9.088;2023-05-29T08:30:04;4.30;;;3.90;;
42600;SDS011;28229;48.856;9.088;2023-05-29T08:32:31;5.63;;;4.00;;
42600;SDS011;28229;48.856;9.088;2023-05-29T08:34:57;5.03;;;3.97;;
42600;SDS011;28229;48.856;9.088;2023-05-29T08:37:23;4.00;;;3.60;;
42600;SDS011;28229;48.856;9.088;2023-05-29T08:39:50;5.17;;;4.00;;
42600;SDS011;28229;48.856;9.088;2023-05-29T08:42:18;5.43;;;4.00;;
42600;SDS011;28229;48.856;9.088;2023-05-29T08:44:48;5.07;;;4.10;;
42600;SDS011;28229;48.856;9.088;2023-05-29T08:47:20;5.03;;;4.03;;
42600;SDS011;28229;48.856;9.088;2023-05-29T08:49:53;4.77;;;4.03;;
42600;SDS011;28229;48.856;9.088;2023-05-29T08:52:21;5.83;;;3.93;;
42600;SDS011;28229;48.856;9.088;2023-05-29T08:54:49;4.80;;;4.00;;
42600;SDS011;28229;48.856;9.088;2023-05-29T08:57:15;6.07;;;3.90;;
42600;SDS011;28229;48.856;9.088;2023-05-29T08:59:42;5.53;;;3.90;;
42600;SDS011;28229;48.856;9.088;2023-05-29T09:02:10;5.67;;;3.90;;
42600;SDS011;28229;48.856;9.088;2023-05-29T09:04:41;4.90;;;4.03;;
42600;SDS011;28229;48.856;9.088;2023-05-29T09:07:13;6.53;;;4.20;;
42600;SDS011;28229;48.856;9.088;2023-05-29T09:09:40;4.67;;;3.67;;
42600;SDS011;28229;48.856;9.088;2023-05-29T09:12:06;5.20;;;3.90;;
42600;SDS011;28229;48.856;9.088;2023-05-29T09:14:37;5.10;;;3.87;;
42600;SDS011;28229;48.856;9.088;2023-05-29T09:17:05;5.83;;;3.67;;
42600;SDS011;28229;48.856;9.088;2023-05-29T09:19:33;5.63;;;4.20;;
42600;SDS011;28229;48.856;9.088;2023-05-29T09:22:00;4.40;;;4.00;;
42600;SDS011;28229;48.856;9.088;2023-05-29T09:24:34;5.23;;;3.67;;
42600;SDS011;28229;48.856;9.088;2023-05-29T09:27:02;4.60;;;3.90;;
42600;SDS011;28229;48.856;9.088;2023-05-29T09:29:41;4.90;;;3.50;;
42600;SDS011;28229;48.856;9.088;2023-05-29T09:32:08;5.27;;;3.87;;
42600;SDS011;28229;48.856;9.088;2023-05-29T09:34:38;6.72;;;4.57;;
42600;SDS011;28229;48.856;9.088;2023-05-29T09:37:06;4.20;;;3.67;;
42600;SDS011;28229;48.856;9.088;2023-05-29T09:39:47;4.45;;;4.05;;
42600;SDS011;28229;48.856;9.088;2023-05-29T09:42:14;5.55;;;3.90;;
42600;SDS011;28229;48.856;9.088;2023-05-29T09:44:45;5.32;;;4.03;;
42600;SDS011;28229;48.856;9.088;2023-05-29T09:47:17;5.20;;;3.90;;
42600;SDS011;28229;48.856;9.088;2023-05-29T09:49:45;6.25;;;4.13;;
42600;SDS011;28229;48.856;9.088;2023-05-29T09:52:13;3.88;;;3.50;;
42600;SDS011;28229;48.856;9.088;2023-05-29T09:54:44;4.68;;;3.88;;
42600;SDS011;28229;48.856;9.088;2023-05-29T09:57:15;5.10;;;3.95;;
42600;SDS011;28229;48.856;9.088;2023-05-29T09:59:43;5.28;;;4.00;;
42600;SDS011;28229;48.856;9.088;2023-05-29T10:02:17;5.38;;;4.00;;
42600;SDS011;28229;48.856;9.088;2023-05-29T10:04:44;4.22;;;3.83;;
42600;SDS011;28229;48.856;9.088;2023-05-29T10:07:12;4.68;;;3.97;;
42600;SDS011;28229;48.856;9.088;2023-05-29T10:09:47;5.85;;;4.03;;
42600;SDS011;28229;48.856;9.088;2023-05-29T10:12:17;7.18;;;3.83;;
42600;SDS011;28229;48.856;9.088;2023-05-29T10:14:47;5.85;;;3.78;;
42600;SDS011;28229;48.856;9.088;2023-05-29T10:17:15;5.82;;;3.80;;
42600;SDS011;28229;48.856;9.088;2023-05-29T10:19:49;5.35;;;3.65;;
42600;SDS011;28229;48.856;9.088;2023-05-29T10:22:17;5.07;;;3.80;;
42600;SDS011;28229;48.856;9.088;2023-05-29T10:24:46;4.75;;;3.78;;
42600;SDS011;28229;48.856;9.088;2023-05-29T10:27:16;4.07;;;3.50;;
42600;SDS011;28229;48.856;9.088;2023-05-29T10:29:43;4.95;;;3.72;;
42600;SDS011;28229;48.856;9.088;2023-05-29T10:32:32;5.03;;;3.45;;
42600;SDS011;28229;48.856;9.088;2023-05-29T10:35:16;5.85;;;3.80;;
42600;SDS011;28229;48.856;9.088;2023-05-29T10:37:59;5.80;;;3.50;;
42600;SDS011;28229;48.856;9.088;2023-05-29T10:40:35;6.32;;;3.53;;
42600;SDS011;28229;48.856;9.088;2023-05-29T10:43:01;4.80;;;3.97;;
42600;SDS011;28229;48.856;9.088;2023-05-29T10:50:43;4.68;;;3.55;;
42600;SDS011;28229;48.856;9.088;2023-05-29T10:53:14;4.57;;;3.38;;
42600;SDS011;28229;48.856;9.088;2023-05-29T10:55:49;4.07;;;3.40;;
42600;SDS011;28229;48.856;9.088;2023-05-29T10:58:24;6.60;;;3.80;;
42600;SDS011;28229;48.856;9.088;2023-05-29T11:00:52;4.05;;;3.35;;
42600;SDS011;28229;48.856;9.088;2023-05-29T11:03:22;5.13;;;3.40;;
42600;SDS011;28229;48.856;9.088;2023-05-29T11:05:58;4.03;;;3.38;;
42600;SDS011;28229;48.856;9.088;2023-05-29T11:08:32;4.95;;;3.45;;
42600;SDS011;28229;48.856;9.088;2023-05-29T11:11:15;5.30;;;3.60;;
42600;SDS011;28229;48.856;9.088;2023-05-29T11:13:42;5.15;;;3.40;;
42600;SDS011;28229;48.856;9.088;2023-05-29T11:18:51;3.83;;;3.42;;
42600;SDS011;28229;48.856;9.088;2023-05-29T11:21:22;5.43;;;3.78;;
42600;SDS011;28229;48.856;9.088;2023-05-29T11:23:51;6.32;;;3.08;;
42600;SDS011;28229;48.856;9.088;2023-05-29T11:26:23;4.20;;;3.35;;
42600;SDS011;28229;48.856;9.088;2023-05-29T11:28:56;4.45;;;3.17;;
42600;SDS011;28229;48.856;9.088;2023-05-29T11:31:23;4.18;;;3.60;;
42600;SDS011;28229;48.856;9.088;2023-05-29T11:33:50;4.00;;;3.20;;
42600;SDS011;28229;48.856;9.088;2023-05-29T11:36:17;4.90;;;3.42;;
42600;SDS011;28229;48.856;9.088;2023-05-29T11:38:46;4.07;;;3.25;;
42600;SDS011;28229;48.856;9.088;2023-05-29T11:41:13;3.75;;;3.30;;
42600;SDS011;28229;48.856;9.088;2023-05-29T11:43:42;5.15;;;3.30;;
42600;SDS011;28229;48.856;9.088;2023-05-29T11:46:18;4.32;;;3.40;;
42600;SDS011;28229;48.856;9.088;2023-05-29T11:48:46;5.20;;;3.50;;
42600;SDS011;28229;48.856;9.088;2023-05-29T11:51:12;4.53;;;3.10;;
42600;SDS011;28229;48.856;9.088;2023-05-29T11:53:40;5.28;;;3.00;;
42600;SDS011;28229;48.856;9.088;2023-05-29T11:56:08;3.90;;;3.15;;
42600;SDS011;28229;48.856;9.088;2023-05-29T11:58:38;3.60;;;3.30;;
42600;SDS011;28229;48.856;9.088;2023-05-29T12:01:06;4.65;;;3.38;;
42600;SDS011;28229;48.856;9.088;2023-05-29T12:03:42;3.42;;;3.10;;
42600;SDS011;28229;48.856;9.088;2023-05-29T12:06:09;4.70;;;3.67;;
42600;SDS011;28229;48.856;9.088;2023-05-29T12:08:39;3.58;;;3.28;;
42600;SDS011;28229;48.856;9.088;2023-05-29T12:11:05;4.00;;;3.38;;
42600;SDS011;28229;48.856;9.088;2023-05-29T12:13:31;3.65;;;3.35;;
42600;SDS011;28229;48.856;9.088;2023-05-29T12:15:59;5.47;;;3.90;;
42600;SDS011;28229;48.856;9.088;2023-05-29T12:18:27;4.90;;;3.15;;
42600;SDS011;28229;48.856;9.088;2023-05-29T12:20:57;3.13;;;2.92;;
42600;SDS011;28229;48.856;9.088;2023-05-29T12:23:27;3.45;;;3.15;;
42600;SDS011;28229;48.856;9.088;2023-05-29T12:25:55;3.75;;;3.00;;
42600;SDS011;28229;48.856;9.088;2023-05-29T12:28:21;4.90;;;2.97;;
42600;SDS011;28229;48.856;9.088;2023-05-29T12:30:48;3.45;;;3.10;;
42600;SDS011;28229;48.856;9.088;2023-05-29T12:33:30;3.75;;;3.15;;
42600;SDS011;28229;48.856;9.088;2023-05-29T12:36:01;5.13;;;3.33;;
42600;SDS011;28229;48.856;9.088;2023-05-29T12:38:32;4.03;;;3.10;;
42600;SDS011;28229;48.856;9.088;2023-05-29T12:40:59;3.65;;;2.80;;
42600;SDS011;28229;48.856;9.088;2023-05-29T12:43:25;3.78;;;3.42;;
42600;SDS011;28229;48.856;9.088;2023-05-29T12:45:55;5.47;;;3.38;;
42600;SDS011;28229;48.856;9.088;2023-05-29T12:48:25;4.25;;;3.85;;
42600;SDS011;28229;48.856;9.088;2023-05-29T12:50:52;4.32;;;3.13;;
42600;SDS011;28229;48.856;9.088;2023-05-29T12:53:18;3.83;;;3.45;;
42600;SDS011;28229;48.856;9.088;2023-05-29T12:55:47;3.35;;;3.05;;
42600;SDS011;28229;48.856;9.088;2023-05-29T12:58:15;4.03;;;3.40;;
42600;SDS011;28229;48.856;9.088;2023-05-29T13:00:42;4.55;;;3.53;;
42600;SDS011;28229;48.856;9.088;2023-05-29T13:03:09;4.03;;;3.72;;
42600;SDS011;28229;48.856;9.088;2023-05-29T13:05:38;4.18;;;3.17;;
42600;SDS011;28229;48.856;9.088;2023-05-29T13:08:06;4.20;;;3.30;;
42600;SDS011;28229;48.856;9.088;2023-05-29T13:10:33;3.60;;;3.30;;
42600;SDS011;28229;48.856;9.088;2023-05-29T13:13:03;3.60;;;3.20;;
42600;SDS011;28229;48.856;9.088;2023-05-29T13:15:29;4.03;;;3.20;;
42600;SDS011;28229;48.856;9.088;2023-05-29T13:17:56;4.35;;;3.28;;
42600;SDS011;28229;48.856;9.088;2023-05-29T13:20:22;3.30;;;3.00;;
42600;SDS011;28229;48.856;9.088;2023-05-29T13:22:48;4.35;;;3.33;;
42600;SDS011;28229;48.856;9.088;2023-05-29T13:25:16;3.50;;;3.20;;
42600;SDS011;28229;48.856;9.088;2023-05-29T13:27:46;3.83;;;3.10;;
42600;SDS011;28229;48.856;9.088;2023-05-29T13:30:14;3.53;;;3.10;;
42600;SDS011;28229;48.856;9.088;2023-05-29T13:32:40;3.13;;;2.90;;
42600;SDS011;28229;48.856;9.088;2023-05-29T13:35:07;3.00;;;2.70;;
42600;SDS011;28229;48.856;9.088;2023-05-29T13:37:35;3.50;;;3.05;;
42600;SDS011;28229;48.856;9.088;2023-05-29T13:40:02;4.90;;;3.35;;
42600;SDS011;28229;48.856;9.088;2023-05-29T13:42:29;5.90;;;2.88;;
42600;SDS011;28229;48.856;9.088;2023-05-29T13:44:56;3.38;;;2.90;;
42600;SDS011;28229;48.856;9.088;2023-05-29T13:47:23;3.10;;;2.90;;
42600;SDS011;28229;48.856;9.088;2023-05-29T13:49:49;3.20;;;2.90;;
42600;SDS011;28229;48.856;9.088;2023-05-29T13:52:16;4.63;;;2.85;;
42600;SDS011;28229;48.856;9.088;2023-05-29T13:54:42;2.85;;;2.65;;
42600;SDS011;28229;48.856;9.088;2023-05-29T13:57:08;5.60;;;3.20;;
42600;SDS011;28229;48.856;9.088;2023-05-29T13:59:34;2.83;;;2.63;;
42600;SDS011;28229;48.856;9.088;2023-05-29T14:02:01;3.55;;;2.88;;
42600;SDS011;28229;48.856;9.088;2023-05-29T14:04:28;3.78;;;3.20;;
42600;SDS011;28229;48.856;9.088;2023-05-29T14:06:58;4.40;;;2.90;;
42600;SDS011;28229;48.856;9.088;2023-05-29T14:09:24;3.25;;;2.95;;
42600;SDS011;28229;48.856;9.088;2023-05-29T14:11:54;2.90;;;2.70;;
42600;SDS011;28229;48.856;9.088;2023-05-29T14:14:21;4.28;;;3.08;;
42600;SDS011;28229;48.856;9.088;2023-05-29T14:16:48;3.20;;;2.70;;
42600;SDS011;28229;48.856;9.088;2023-05-29T14:19:15;3.33;;;3.05;;
42600;SDS011;28229;48.856;9.088;2023-05-29T14:21:41;3.90;;;3.00;;
42600;SDS011;28229;48.856;9.088;2023-05-29T14:24:08;3.25;;;2.88;;
42600;SDS011;28229;48.856;9.088;2023-05-29T14:26:34;3.25;;;2.95;;
42600;SDS011;28229;48.856;9.088;2023-05-29T14:29:01;3.47;;;3.10;;
42600;SDS011;28229;48.856;9.088;2023-05-29T14:31:28;3.75;;;3.15;;
42600;SDS011;28229;48.856;9.088;2023-05-29T14:33:54;3.78;;;2.85;;
42600;SDS011;28229;48.856;9.088;2023-05-29T14:36:20;3.08;;;2.88;;
42600;SDS011;28229;48.856;9.088;2023-05-29T14:38:46;3.50;;;3.20;;
42600;SDS011;28229;48.856;9.088;2023-05-29T14:41:15;4.43;;;2.80;;
42600;SDS011;28229;48.856;9.088;2023-05-29T14:43:41;3.25;;;2.70;;
42600;SDS011;28229;48.856;9.088;2023-05-29T14:46:08;4.03;;;3.00;;
42600;SDS011;28229;48.856;9.088;2023-05-29T14:48:35;4.25;;;3.10;;
42600;SDS011;28229;48.856;9.088;2023-05-29T14:51:01;3.28;;;3.00;;
42600;SDS011;28229;48.856;9.088;2023-05-29T14:53:27;3.25;;;2.95;;
42600;SDS011;28229;48.856;9.088;2023-05-29T14:55:54;3.50;;;2.80;;
42600;SDS011;28229;48.856;9.088;2023-05-29T14:58:21;2.80;;;2.60;;
42600;SDS011;28229;48.856;9.088;2023-05-29T15:00:48;4.13;;;2.90;;
42600;SDS011;28229;48.856;9.088;2023-05-29T15:03:14;4.30;;;3.10;;
42600;SDS011;28229;48.856;9.088;2023-05-29T15:05:40;3.00;;;2.80;;
42600;SDS011;28229;48.856;9.088;2023-05-29T15:08:06;4.75;;;3.00;;
42600;SDS011;28229;48.856;9.088;2023-05-29T15:10:32;3.08;;;2.83;;
42600;SDS011;28229;48.856;9.088;2023-05-29T15:12:59;4.05;;;2.92;;
42600;SDS011;28229;48.856;9.088;2023-05-29T15:15:25;3.17;;;2.75;;
42600;SDS011;28229;48.856;9.088;2023-05-29T15:17:53;3.80;;;2.90;;